Time;durP1;ratioP1;P1;durP2;ratioP2;P2;SDS_P1;SDS_P2;PMS_P1;PMS_P2;Temp;Humidity;BMP_temperature;BMP_pressure;BME280_temperature;BME280_humidity;BME280_pressure;Samples;Min_cycle;Max_cycle;Signal;HPM_P1;HPM_P2
2021/06/24 00:01:54;;;;;;;13.00;6.28;;;;;;;15.82;76.03;101735.53;4970292;28;20055;-68
2021/06/24 00:04:21;;;;;;;16.92;6.18;;;;;;;15.75;76.28;101731.38;4966649;28;20121;-68
2021/06/24 00:06:49;;;;;;;14.43;5.88;;;;;;;15.70;76.46;101725.38;4967662;28;20047;-68
2021/06/24 00:09:15;;;;;;;13.40;5.85;;;;;;;15.61;76.65;101728.22;4968091;28;20049;-68
2021/06/24 00:11:42;;;;;;;11.77;5.80;;;;;;;15.62;76.79;101732.59;4970021;28;20069;-67
2021/06/24 00:14:08;;;;;;;15.88;6.45;;;;;;;15.64;76.65;101733.38;4966863;28;20050;-68
2021/06/24 00:16:35;;;;;;;12.85;5.90;;;;;;;15.66;76.31;101737.72;4962399;28;20133;-66
2021/06/24 00:19:01;;;;;;;13.32;6.22;;;;;;;15.64;76.57;101733.38;4967072;28;20051;-67
2021/06/24 00:21:28;;;;;;;15.65;6.35;;;;;;;15.63;76.27;101726.41;4968511;28;20118;-67
2021/06/24 00:23:56;;;;;;;11.52;5.88;;;;;;;15.58;76.84;101736.16;4966782;28;20055;-67
2021/06/24 00:26:22;;;;;;;14.15;6.30;;;;;;;15.59;76.62;101728.25;4966235;28;20047;-67
2021/06/24 00:28:49;;;;;;;15.35;5.53;;;;;;;15.57;76.87;101724.84;4968816;28;20047;-66
2021/06/24 00:31:15;;;;;;;12.45;6.90;;;;;;;15.52;76.59;101727.53;4968497;28;20563;-67
2021/06/24 00:33:42;;;;;;;14.10;6.50;;;;;;;15.49;76.80;101729.38;4967977;28;20074;-67
2021/06/24 00:36:08;;;;;;;15.07;6.60;;;;;;;15.51;77.01;101720.59;4960444;28;20066;-67
2021/06/24 00:38:35;;;;;;;12.63;6.45;;;;;;;15.44;77.23;101726.00;4966237;28;20043;-66
2021/06/24 00:41:03;;;;;;;13.07;6.28;;;;;;;15.42;77.52;101723.44;4967764;28;20051;-67
2021/06/24 00:43:30;;;;;;;10.68;6.45;;;;;;;15.50;77.56;101731.97;4967146;28;20397;-67
2021/06/24 00:45:56;;;;;;;17.27;7.00;;;;;;;15.58;76.90;101733.53;4968292;28;20047;-68
2021/06/24 00:48:23;;;;;;;14.82;6.03;;;;;;;15.49;77.00;101730.25;4964585;28;20055;-67
2021/06/24 00:50:49;;;;;;;12.65;6.18;;;;;;;15.46;77.06;101730.31;4969243;28;20050;-67
2021/06/24 00:53:16;;;;;;;14.32;6.20;;;;;;;15.39;77.29;101728.75;4968783;28;20046;-67
2021/06/24 00:55:44;;;;;;;12.00;5.75;;;;;;;15.34;77.46;101727.97;4967351;28;20054;-67
2021/06/24 00:58:13;;;;;;;13.32;6.50;;;;;;;15.38;77.57;101727.88;4966375;28;20501;-67
2021/06/24 01:00:42;;;;;;;15.48;7.05;;;;;;;15.31;77.57;101725.44;4967341;28;20063;-67
2021/06/24 01:03:09;;;;;;;12.52;5.97;;;;;;;15.30;78.05;101724.56;4967146;28;20066;-67
2021/06/24 01:05:37;;;;;;;13.30;4.93;;;;;;;15.24;77.84;101733.44;4964174;28;20054;-66
2021/06/24 01:08:03;;;;;;;14.88;6.95;;;;;;;15.14;78.18;101731.91;4965879;28;20544;-66
2021/06/24 01:10:30;;;;;;;9.65;5.57;;;;;;;15.15;78.12;101731.03;4965184;28;20516;-67
2021/06/24 01:12:57;;;;;;;13.88;6.20;;;;;;;15.10;78.35;101722.41;4966123;28;20047;-66
2021/06/24 01:15:24;;;;;;;12.15;6.18;;;;;;;15.07;78.54;101722.47;4963778;28;20059;-67
2021/06/24 01:17:51;;;;;;;13.50;5.85;;;;;;;15.08;78.65;101716.34;4966863;28;20062;-67
2021/06/24 01:20:23;;;;;;;11.25;5.93;;;;;;;15.06;78.44;101720.75;4968721;28;20050;-67
2021/06/24 01:22:49;;;;;;;14.35;6.68;;;;;;;14.98;78.94;101717.44;4966705;28;20055;-67
2021/06/24 01:25:17;;;;;;;18.75;7.05;;;;;;;14.99;78.68;101719.16;5001854;28;20041;-66
2021/06/24 01:27:43;;;;;;;14.68;6.07;;;;;;;15.00;78.98;101723.50;4976164;28;20058;-67
2021/06/24 01:30:11;;;;;;;15.25;6.60;;;;;;;14.96;79.23;101724.47;4967307;28;20050;-68
2021/06/24 01:32:37;;;;;;;15.05;7.50;;;;;;;14.92;79.40;101714.03;4965920;28;20051;-67
2021/06/24 01:35:05;;;;;;;13.60;5.93;;;;;;;14.90;79.44;101721.09;4967621;28;20058;-67
2021/06/24 01:37:31;;;;;;;12.80;6.75;;;;;;;14.93;79.80;101717.53;4966841;28;20062;-67
2021/06/24 01:39:57;;;;;;;15.90;6.43;;;;;;;15.00;79.39;101710.41;4963396;28;20581;-67
2021/06/24 01:42:28;;;;;;;14.70;6.82;;;;;;;14.97;79.54;101702.59;4972094;28;20566;-68
2021/06/24 01:44:54;;;;;;;13.13;6.68;;;;;;;14.91;79.92;101699.25;4967528;28;20046;-64
2021/06/24 01:47:21;;;;;;;12.68;6.45;;;;;;;14.85;79.94;101696.75;4965428;28;20052;-66
2021/06/24 01:49:47;;;;;;;22.45;7.47;;;;;;;14.84;79.78;101700.25;4966656;28;20050;-67
2021/06/24 01:52:14;;;;;;;15.00;6.32;;;;;;;14.83;80.28;101701.13;4965275;28;20054;-66
2021/06/24 01:54:45;;;;;;;19.45;6.32;;;;;;;14.77;80.30;101703.91;4966776;28;20051;-67
2021/06/24 01:57:14;;;;;;;14.68;6.45;;;;;;;14.71;80.79;101698.81;4964920;28;20055;-67
2021/06/24 01:59:42;;;;;;;15.15;6.97;;;;;;;14.79;80.39;101696.00;4963222;28;20105;-67
2021/06/24 02:02:08;;;;;;;15.27;7.15;;;;;;;14.72;80.84;101698.78;4964731;28;20055;-67
2021/06/24 02:04:35;;;;;;;14.82;6.55;;;;;;;14.72;81.00;101700.53;4965941;28;20050;-67
2021/06/24 02:07:01;;;;;;;13.63;6.20;;;;;;;14.76;80.74;101702.19;4966410;28;20096;-67
2021/06/24 02:09:28;;;;;;;14.10;6.20;;;;;;;14.72;80.99;101697.91;4966135;28;20500;-66
2021/06/24 02:11:56;;;;;;;18.20;7.82;;;;;;;14.68;80.84;101691.00;4962060;28;20054;-67
2021/06/24 02:14:22;;;;;;;16.25;7.30;;;;;;;14.66;81.53;101698.00;4963475;28;20074;-67
2021/06/24 02:16:50;;;;;;;18.83;7.72;;;;;;;14.69;80.72;101695.34;4964621;28;20057;-67
2021/06/24 02:19:16;;;;;;;15.73;7.18;;;;;;;14.61;81.54;101688.50;4963121;28;20063;-67
2021/06/24 02:21:43;;;;;;;21.00;7.07;;;;;;;14.57;81.66;101681.59;4969943;28;20188;-67
2021/06/24 02:24:09;;;;;;;13.80;7.00;;;;;;;14.50;81.53;101684.34;4963667;28;20051;-67
2021/06/24 02:26:36;;;;;;;14.88;7.40;;;;;;;14.50;82.04;101692.22;4966983;28;20058;-67
2021/06/24 02:29:02;;;;;;;16.27;7.20;;;;;;;14.59;81.79;101694.63;4965861;28;20039;-65
2021/06/24 02:31:29;;;;;;;17.10;6.95;;;;;;;14.60;81.51;101686.78;4965278;28;20062;-67
2021/06/24 02:33:58;;;;;;;12.50;6.65;;;;;;;14.51;81.93;101678.22;4968154;28;20051;-67
2021/06/24 02:36:24;;;;;;;14.27;7.25;;;;;;;14.50;81.96;101679.13;4967069;28;20051;-67
2021/06/24 02:38:51;;;;;;;15.98;7.22;;;;;;;14.45;82.01;101666.13;4965876;28;20046;-68
2021/06/24 02:41:17;;;;;;;20.25;7.25;;;;;;;14.39;82.47;101668.88;4967148;28;20058;-67
2021/06/24 02:43:44;;;;;;;13.10;7.18;;;;;;;14.41;82.27;101669.72;4962693;28;20077;-67
2021/06/24 02:46:10;;;;;;;15.32;8.13;;;;;;;14.35;82.96;101669.81;4964734;28;20521;-67
2021/06/24 02:48:37;;;;;;;16.27;7.03;;;;;;;14.36;82.92;101666.31;4967418;28;20053;-67
2021/06/24 02:51:05;;;;;;;18.65;7.28;;;;;;;14.39;82.67;101663.66;4968735;28;20043;-67
2021/06/24 02:53:32;;;;;;;16.67;7.57;;;;;;;14.37;82.67;101660.19;4958677;28;20051;-66
2021/06/24 02:55:58;;;;;;;18.52;7.70;;;;;;;14.34;82.79;101658.50;4966915;28;20055;-67
2021/06/24 02:58:25;;;;;;;15.55;8.02;;;;;;;14.39;82.48;101666.25;4971043;28;20050;-67
2021/06/24 03:00:51;;;;;;;16.45;7.57;;;;;;;14.39;82.67;101661.03;4971029;28;20054;-67
2021/06/24 03:03:18;;;;;;;22.23;8.63;;;;;;;14.32;82.97;101662.06;4971579;28;20054;-67
2021/06/24 03:05:44;;;;;;;16.77;7.57;;;;;;;14.32;83.06;101657.66;4968525;28;20582;-67
2021/06/24 03:08:12;;;;;;;18.92;8.02;;;;;;;14.31;82.89;101658.56;4968018;28;20523;-65
2021/06/24 03:10:39;;;;;;;14.77;8.65;;;;;;;14.33;82.76;101658.50;4969374;28;20501;-67
2021/06/24 03:13:05;;;;;;;14.98;7.72;;;;;;;14.34;83.26;101652.41;4968304;28;20148;-67
2021/06/24 03:15:35;;;;;;;17.55;8.18;;;;;;;14.30;83.35;101659.44;4968045;28;20059;-66
2021/06/24 03:18:02;;;;;;;16.92;8.02;;;;;;;14.24;83.28;101651.72;4965954;28;20084;-67
2021/06/24 03:20:29;;;;;;;22.52;7.60;;;;;;;14.25;83.67;101651.69;4971311;28;20050;-67
2021/06/24 03:22:57;;;;;;;15.68;7.65;;;;;;;14.38;83.21;101661.91;4968902;28;20134;-66
2021/06/24 03:25:26;;;;;;;21.30;8.65;;;;;;;14.35;83.09;101661.97;4970707;28;20631;-67
2021/06/24 03:27:53;;;;;;;17.52;7.88;;;;;;;14.29;83.36;101662.94;4969094;28;20054;-68
2021/06/24 03:30:20;;;;;;;17.23;8.05;;;;;;;14.29;83.13;101665.56;4970506;28;20043;-67
2021/06/24 03:32:47;;;;;;;21.75;8.02;;;;;;;14.29;83.37;101666.44;4970441;28;20050;-67
2021/06/24 03:35:14;;;;;;;13.82;8.07;;;;;;;14.34;83.47;101668.09;4965538;28;20051;-68
2021/06/24 03:37:40;;;;;;;16.25;8.77;;;;;;;14.32;83.25;101667.28;4968631;28;20047;-67
2021/06/24 03:40:09;;;;;;;15.48;7.55;;;;;;;14.35;83.16;101664.59;4970162;28;20520;-67
2021/06/24 03:42:37;;;;;;;28.42;8.85;;;;;;;14.26;83.60;101669.13;4969908;28;20051;-67
2021/06/24 03:45:05;;;;;;;20.02;8.05;;;;;;;14.26;83.51;101661.25;4964001;28;20046;-67
2021/06/24 03:47:31;;;;;;;19.55;8.75;;;;;;;14.31;83.42;101661.19;4968602;28;20042;-65
2021/06/24 03:49:57;;;;;;;13.60;8.27;;;;;;;14.31;83.40;101653.31;4969073;28;20081;-68
2021/06/24 03:52:24;;;;;;;14.70;9.10;;;;;;;14.29;83.70;101652.47;4969538;28;20539;-67
2021/06/24 03:54:50;;;;;;;17.60;8.35;;;;;;;14.29;83.44;101650.75;4969767;28;20042;-67
2021/06/24 03:57:17;;;;;;;19.20;8.85;;;;;;;14.31;83.24;101653.31;4967450;28;20051;-67
2021/06/24 03:59:45;;;;;;;12.57;8.38;;;;;;;14.30;83.64;101657.72;4961574;28;20047;-66
2021/06/24 04:02:11;;;;;;;18.50;8.40;;;;;;;14.35;83.11;101660.22;4961899;28;20058;-67
2021/06/24 04:04:37;;;;;;;20.67;8.50;;;;;;;14.41;83.39;101654.00;4968028;28;20058;-67
2021/06/24 04:07:04;;;;;;;17.05;8.65;;;;;;;14.48;82.99;101655.59;4965178;28;20503;-65
2021/06/24 04:09:31;;;;;;;15.38;7.72;;;;;;;14.45;82.75;101658.28;4967016;28;20068;-67
2021/06/24 04:11:57;;;;;;;19.10;8.70;;;;;;;14.40;83.00;101652.28;4967594;28;20065;-67
2021/06/24 04:14:24;;;;;;;15.82;8.60;;;;;;;14.34;83.39;101653.28;4965081;28;20633;-68
2021/06/24 04:16:51;;;;;;;14.73;8.10;;;;;;;14.32;83.84;101647.19;4965889;28;20050;-66
2021/06/24 04:19:20;;;;;;;23.60;9.13;;;;;;;14.39;83.40;101647.94;4957697;28;20051;-67
2021/06/24 04:21:46;;;;;;;19.90;8.68;;;;;;;14.49;82.85;101645.97;4956834;28;20063;-67
2021/06/24 04:24:13;;;;;;;17.08;8.27;;;;;;;14.50;83.11;101647.69;4957946;28;20058;-68
2021/06/24 04:26:39;;;;;;;16.23;8.68;;;;;;;14.57;82.38;101647.56;4964977;28;20073;-67
2021/06/24 04:29:06;;;;;;;19.80;8.63;;;;;;;14.47;82.91;101648.63;4968516;28;20463;-68
2021/06/24 04:31:32;;;;;;;17.95;8.50;;;;;;;14.53;82.71;101653.72;4964596;28;20051;-67
2021/06/24 04:34:00;;;;;;;21.00;8.68;;;;;;;14.50;82.89;101647.69;4962980;28;20054;-67
2021/06/24 04:36:27;;;;;;;17.80;8.77;;;;;;;14.54;82.75;101652.84;4961050;28;20397;-67
2021/06/24 04:38:53;;;;;;;16.42;9.05;;;;;;;14.55;82.59;101656.34;4960271;28;20050;-67
2021/06/24 04:41:20;;;;;;;15.73;8.77;;;;;;;14.52;82.72;101646.81;4963482;28;20057;-65
2021/06/24 04:43:47;;;;;;;19.85;8.73;;;;;;;14.60;82.95;101650.13;4968004;28;20054;-71
2021/06/24 04:46:13;;;;;;;24.50;9.75;;;;;;;14.75;82.25;101654.19;4967428;28;20055;-67
2021/06/24 04:48:40;;;;;;;22.20;9.48;;;;;;;14.89;81.55;101656.50;4962885;28;20955;-67
2021/06/24 04:51:08;;;;;;;19.35;8.70;;;;;;;14.99;82.46;101649.28;4955781;28;20061;-66
2021/06/24 04:53:34;;;;;;;17.05;8.73;;;;;;;15.23;81.08;101644.38;4959567;28;20054;-67
2021/06/24 04:56:01;;;;;;;14.75;7.63;;;;;;;15.48;79.98;101652.47;4961341;28;20482;-64
2021/06/24 04:58:27;;;;;;;19.50;8.30;;;;;;;15.73;78.32;101636.09;4961989;28;20051;-63
2021/06/24 05:00:54;;;;;;;21.45;8.73;;;;;;;15.83;77.68;101648.06;4956461;28;20046;-67
2021/06/24 05:03:20;;;;;;;18.20;7.65;;;;;;;15.99;76.67;101645.09;4958669;28;20051;-67
2021/06/24 05:05:48;;;;;;;15.85;7.78;;;;;;;16.01;76.94;101641.50;4959520;28;20444;-67
2021/06/24 05:08:17;;;;;;;16.65;7.90;;;;;;;16.22;76.27;101646.22;4959344;28;21850;-67
2021/06/24 05:10:44;;;;;;;16.80;7.63;;;;;;;16.23;75.23;101640.91;4955367;28;20051;-67
2021/06/24 05:13:11;;;;;;;14.48;7.97;;;;;;;16.11;75.82;101636.88;4961397;28;20065;-67
2021/06/24 05:15:37;;;;;;;16.58;7.90;;;;;;;16.04;76.09;101648.44;4965706;28;20432;-66
2021/06/24 05:18:04;;;;;;;21.05;8.77;;;;;;;15.91;77.02;101641.81;4964520;28;20550;-67
2021/06/24 05:20:31;;;;;;;16.45;8.35;;;;;;;15.92;76.62;101654.03;4962266;28;20055;-65
2021/06/24 05:22:58;;;;;;;17.45;7.88;;;;;;;15.95;76.62;101643.44;4964468;28;20063;-68
2021/06/24 05:25:26;;;;;;;19.08;8.75;;;;;;;15.78;76.95;101646.47;4958485;28;20054;-67
2021/06/24 05:27:52;;;;;;;17.98;8.68;;;;;;;15.72;77.59;101652.78;4961846;28;20066;-67
2021/06/24 05:30:19;;;;;;;25.17;9.38;;;;;;;15.56;78.03;101657.53;4957489;28;20527;-68
2021/06/24 05:32:46;;;;;;;19.23;8.60;;;;;;;15.48;78.50;101659.47;4960935;28;20061;-67
2021/06/24 05:35:13;;;;;;;22.70;9.80;;;;;;;15.48;78.76;101657.72;4963128;28;20046;-67
2021/06/24 05:37:39;;;;;;;20.48;9.23;;;;;;;15.38;78.81;101657.09;4961542;28;20062;-67
2021/06/24 05:40:07;;;;;;;16.90;9.57;;;;;;;15.42;78.63;101655.28;4956279;28;20142;-67
2021/06/24 05:42:35;;;;;;;23.33;9.73;;;;;;;15.31;79.17;101667.78;4955559;28;20061;-66
2021/06/24 05:45:01;;;;;;;18.52;9.52;;;;;;;15.24;79.34;101660.03;4959835;28;20424;-67
2021/06/24 05:47:28;;;;;;;18.33;8.88;;;;;;;15.32;79.48;101659.00;4966890;28;20496;-67
2021/06/24 05:49:54;;;;;;;18.70;9.77;;;;;;;15.35;79.14;101648.44;4958207;28;20065;-67
2021/06/24 05:52:21;;;;;;;22.15;10.02;;;;;;;15.42;79.09;101655.28;4957481;28;20053;-67
2021/06/24 05:54:47;;;;;;;17.30;9.65;;;;;;;15.64;78.25;101654.69;4959546;28;20059;-68
2021/06/24 05:57:13;;;;;;;22.15;10.32;;;;;;;15.59;78.21;101659.22;4957648;28;20055;-67
2021/06/24 05:59:41;;;;;;;20.90;10.50;;;;;;;15.58;78.11;101660.97;4957224;28;20051;-67
2021/06/24 06:02:08;;;;;;;19.33;9.85;;;;;;;15.58;78.57;101657.50;4955391;28;20047;-68
2021/06/24 06:04:35;;;;;;;24.17;10.63;;;;;;;15.45;78.31;101660.41;4959047;28;20065;-68
2021/06/24 06:07:01;;;;;;;21.73;10.30;;;;;;;15.52;78.97;101650.66;4961800;28;20393;-67
2021/06/24 06:09:28;;;;;;;23.33;12.40;;;;;;;15.50;78.31;101653.31;4968653;28;20046;-68
2021/06/24 06:11:55;;;;;;;21.08;10.50;;;;;;;15.71;78.07;101651.03;4965562;28;20069;-67
2021/06/24 06:14:21;;;;;;;17.95;10.68;;;;;;;15.73;78.15;101654.47;4967536;28;20049;-67
2021/06/24 06:16:49;;;;;;;20.98;11.20;;;;;;;15.62;77.86;101654.75;4963133;28;20428;-67
2021/06/24 06:19:15;;;;;;;19.90;10.38;;;;;;;15.55;78.39;101651.41;4962564;28;20066;-66
2021/06/24 06:21:42;;;;;;;17.85;10.43;;;;;;;15.66;78.60;101645.03;4961795;28;20043;-66
2021/06/24 06:24:09;;;;;;;20.52;11.50;;;;;;;15.65;78.38;101641.56;4963448;28;20051;-68
2021/06/24 06:26:35;;;;;;;24.42;11.90;;;;;;;15.62;78.46;101639.03;4957803;28;20051;-67
2021/06/24 06:29:05;;;;;;;20.95;10.10;;;;;;;15.65;78.58;101641.56;4958565;28;20061;-67
2021/06/24 06:31:32;;;;;;;18.13;11.93;;;;;;;15.78;77.86;101639.47;4962890;28;20047;-67
2021/06/24 06:34:00;;;;;;;22.85;12.55;;;;;;;15.92;77.25;101643.53;4960626;28;20043;-67
2021/06/24 06:36:27;;;;;;;23.65;12.93;;;;;;;15.95;77.18;101644.31;4960471;28;20059;-67
2021/06/24 06:38:53;;;;;;;23.20;11.95;;;;;;;16.05;76.98;101647.53;4961517;28;20065;-68
2021/06/24 06:41:19;;;;;;;24.15;13.40;;;;;;;16.11;76.80;101634.25;4960158;28;20054;-67
2021/06/24 06:43:46;;;;;;;24.45;13.82;;;;;;;16.09;76.84;101640.44;4960222;28;20054;-67
2021/06/24 06:46:12;;;;;;;22.08;11.88;;;;;;;16.58;75.56;101639.00;4957076;28;20055;-66
2021/06/24 06:48:40;;;;;;;18.10;10.68;;;;;;;16.93;74.08;101639.75;4958163;28;20055;-66
2021/06/24 06:51:08;;;;;;;23.90;11.45;;;;;;;16.93;73.34;101644.09;4963618;28;20054;-67
2021/06/24 06:53:35;;;;;;;22.65;10.63;;;;;;;16.96;73.92;101636.16;4965033;28;20055;-67
2021/06/24 06:56:01;;;;;;;21.15;11.85;;;;;;;17.01;73.02;101639.50;4961223;28;20054;-67
2021/06/24 06:58:28;;;;;;;21.17;12.25;;;;;;;17.09;72.42;101637.47;4969442;28;20072;-65
2021/06/24 07:00:54;;;;;;;24.05;12.05;;;;;;;17.08;72.40;101633.13;4963906;28;20047;-67
2021/06/24 07:03:20;;;;;;;19.98;12.48;;;;;;;16.75;73.32;101622.75;4959946;28;20051;-66
2021/06/24 07:05:47;;;;;;;24.63;13.65;;;;;;;16.70;73.76;101624.66;4968071;28;20062;-65
2021/06/24 07:08:15;;;;;;;23.38;14.10;;;;;;;16.85;73.13;101628.59;4963206;28;20054;-67
2021/06/24 07:10:42;;;;;;;23.42;12.70;;;;;;;17.35;71.93;101624.41;4958087;28;20705;-68
2021/06/24 07:13:08;;;;;;;19.73;11.27;;;;;;;17.55;71.44;101623.69;4962384;28;20039;-68
2021/06/24 07:15:34;;;;;;;27.40;13.18;;;;;;;17.70;70.42;101625.81;4959971;28;20070;-67
2021/06/24 07:18:01;;;;;;;17.17;10.90;;;;;;;17.80;70.84;101628.97;4963202;28;20050;-67
2021/06/24 07:20:28;;;;;;;16.13;10.52;;;;;;;17.60;70.25;101636.69;4955252;28;20051;-67
2021/06/24 07:22:54;;;;;;;19.42;10.07;;;;;;;17.51;70.17;101633.47;4976461;28;20040;-67
2021/06/24 07:25:22;;;;;;;20.25;9.75;;;;;;;17.84;69.54;101630.59;4966954;28;20059;-65
2021/06/24 07:27:51;;;;;;;20.40;9.30;;;;;;;17.72;70.38;101637.13;4958198;28;20046;-67
2021/06/24 07:30:18;;;;;;;23.45;10.02;;;;;;;17.45;70.81;101633.69;4958251;28;20050;-67
2021/06/24 07:32:45;;;;;;;20.48;9.18;;;;;;;17.36;71.26;101631.38;4958881;28;20057;-67
2021/06/24 07:35:12;;;;;;;19.60;10.07;;;;;;;17.28;71.08;101636.88;4958675;28;20065;-64
2021/06/24 07:37:39;;;;;;;21.10;9.60;;;;;;;17.17;71.63;101634.59;4966143;28;20047;-64
2021/06/24 07:40:07;;;;;;;22.63;9.55;;;;;;;17.15;71.58;101643.44;4961173;28;20141;-67
2021/06/24 07:42:35;;;;;;;16.52;8.98;;;;;;;17.18;71.50;101640.72;4961440;28;20132;-67
2021/06/24 07:45:01;;;;;;;18.48;8.52;;;;;;;17.29;72.70;101628.09;4957769;28;20061;-66
2021/06/24 07:47:28;;;;;;;16.65;10.38;;;;;;;17.47;71.30;101636.25;4955518;28;20082;-67
2021/06/24 07:49:54;;;;;;;18.17;10.93;;;;;;;17.47;71.71;101641.53;4962377;28;20055;-67
2021/06/24 07:52:22;;;;;;;18.52;10.88;;;;;;;17.56;71.43;101636.81;4962847;28;20065;-66
2021/06/24 07:54:48;;;;;;;22.13;11.10;;;;;;;17.56;71.22;101638.56;4959550;28;20072;-67
2021/06/24 07:57:15;;;;;;;15.45;9.98;;;;;;;17.74;70.60;101628.31;4959882;28;20050;-66
2021/06/24 07:59:42;;;;;;;17.98;9.77;;;;;;;17.80;70.28;101631.59;4957827;28;20121;-68
2021/06/24 08:02:09;;;;;;;15.85;7.85;;;;;;;18.17;69.90;101635.56;4959536;28;20062;-67
2021/06/24 08:04:35;;;;;;;18.30;8.88;;;;;;;18.63;67.59;101627.69;4958118;28;20420;-66
2021/06/24 08:07:02;;;;;;;23.85;16.70;;;;;;;18.56;67.48;101626.22;4967969;28;20043;-67
2021/06/24 08:09:29;;;;;;;20.02;11.18;;;;;;;18.71;67.21;101619.50;4967533;28;20061;-64
2021/06/24 08:11:55;;;;;;;18.52;10.35;;;;;;;18.91;66.90;101625.75;4967622;28;20055;-67
2021/06/24 08:14:23;;;;;;;17.40;8.88;;;;;;;19.05;66.00;101617.31;4965550;28;20155;-67
2021/06/24 08:16:51;;;;;;;17.05;9.07;;;;;;;19.17;65.13;101624.72;4967467;28;20051;-67
2021/06/24 08:19:17;;;;;;;17.23;9.27;;;;;;;19.18;65.17;101610.63;4964669;28;20515;-65
2021/06/24 08:21:44;;;;;;;21.88;11.35;;;;;;;18.95;65.36;101617.69;4959086;28;20057;-65
2021/06/24 08:24:10;;;;;;;18.63;10.25;;;;;;;18.94;65.44;101625.66;4962772;28;20046;-65
2021/06/24 08:26:37;;;;;;;16.20;9.25;;;;;;;19.01;65.37;101623.66;4962829;28;20057;-67
2021/06/24 08:29:03;;;;;;;16.90;9.63;;;;;;;18.94;66.46;101630.94;4960291;28;20556;-67
2021/06/24 08:31:30;;;;;;;21.08;9.48;;;;;;;19.07;65.06;101626.03;4956529;28;20531;-67
2021/06/24 08:33:59;;;;;;;18.67;9.48;;;;;;;19.16;64.49;101625.66;4957559;28;20057;-67
2021/06/24 08:36:25;;;;;;;19.15;7.97;;;;;;;19.17;65.06;101624.72;4964640;28;20159;-67
2021/06/24 08:38:51;;;;;;;21.13;9.98;;;;;;;19.07;64.82;101626.03;4963196;28;20054;-67
2021/06/24 08:41:19;;;;;;;15.00;8.35;;;;;;;18.94;65.48;101642.34;4960121;28;20047;-67
2021/06/24 08:43:48;;;;;;;17.50;9.88;;;;;;;18.84;66.05;101632.19;4955659;28;20504;-68
2021/06/24 08:46:16;;;;;;;15.98;8.93;;;;;;;18.71;66.12;101640.59;4967288;28;20389;-71
2021/06/24 08:48:43;;;;;;;14.95;9.18;;;;;;;18.65;66.15;101628.50;4962941;28;20054;-67
2021/06/24 08:51:11;;;;;;;17.42;9.10;;;;;;;18.47;66.58;101631.84;4956628;28;20050;-67
2021/06/24 08:53:37;;;;;;;22.10;8.80;;;;;;;18.63;66.70;101626.84;4961937;28;20066;-67
2021/06/24 08:56:06;;;;;;;19.10;8.82;;;;;;;18.44;67.46;101631.97;4962177;28;20043;-66
2021/06/24 08:58:33;;;;;;;14.77;8.18;;;;;;;18.43;66.45;101641.66;4968460;28;20058;-66
2021/06/24 09:01:00;;;;;;;15.68;8.52;;;;;;;18.64;66.09;101628.56;4968469;28;20138;-67
2021/06/24 09:03:31;;;;;;;16.60;9.35;;;;;;;18.61;66.59;101634.81;4969363;28;20051;-67
2021/06/24 09:06:00;;;;;;;16.27;9.10;;;;;;;18.75;65.88;101636.91;4966375;28;20420;-66
2021/06/24 09:08:37;;;;;;;17.02;8.63;;;;;;;18.73;65.06;101633.47;4963613;28;20047;-67
2021/06/24 09:11:18;;;;;;;19.20;9.05;;;;;;;18.69;66.18;101638.94;4963954;28;20046;-68
2021/06/24 09:13:58;;;;;;;10.60;7.78;;;;;;;18.59;66.45;101633.16;4968221;28;20051;-68
2021/06/24 09:16:26;;;;;;;16.77;7.72;;;;;;;18.88;66.09;101631.13;4965481;28;20085;-67
2021/06/24 09:18:53;;;;;;;16.55;8.57;;;;;;;18.95;65.01;101636.16;4963550;28;20426;-67
2021/06/24 09:21:21;;;;;;;14.85;9.10;;;;;;;19.01;64.26;101632.41;4976685;28;20051;-68
2021/06/24 09:23:50;;;;;;;16.63;9.02;;;;;;;19.01;64.80;101637.69;4968540;28;20071;-68
2021/06/24 09:26:18;;;;;;;16.10;8.68;;;;;;;19.06;64.40;101634.84;4968519;28;20061;-68
2021/06/24 09:28:47;;;;;;;16.25;8.88;;;;;;;19.23;63.66;101634.16;4967416;28;20047;-68
2021/06/24 09:31:25;;;;;;;14.75;8.75;;;;;;;19.40;63.03;101633.47;4967761;28;20043;-68
2021/06/24 09:33:52;;;;;;;17.67;9.73;;;;;;;19.35;63.45;101631.03;4964605;28;20474;-68
2021/06/24 09:36:35;;;;;;;21.45;9.20;;;;;;;19.37;64.35;101623.03;4968768;28;20500;-68
2021/06/24 09:39:06;;;;;;;17.70;8.77;;;;;;;19.55;63.53;101624.03;4969134;28;20047;-67
2021/06/24 09:41:32;;;;;;;16.05;8.90;;;;;;;19.76;62.63;101632.81;4965058;28;20043;-67
2021/06/24 09:43:59;;;;;;;16.70;9.10;;;;;;;19.66;62.05;101624.44;4965557;28;20072;-67
2021/06/24 09:46:30;;;;;;;17.58;8.50;;;;;;;19.58;62.58;101632.69;4965465;28;20474;-68
2021/06/24 09:48:59;;;;;;;15.95;8.05;;;;;;;19.65;62.38;101622.72;4965304;28;20496;-68
2021/06/24 09:51:30;;;;;;;14.18;7.60;;;;;;;19.99;61.17;101629.19;4964003;28;20504;-66
2021/06/24 09:53:58;;;;;;;16.38;8.00;;;;;;;19.98;61.62;101621.34;4966213;28;20062;-68
2021/06/24 09:56:30;;;;;;;12.20;7.20;;;;;;;20.02;61.37;101615.84;4968685;28;20047;-65
2021/06/24 09:58:57;;;;;;;15.68;8.82;;;;;;;19.83;61.78;101621.03;4969586;28;20078;-67
2021/06/24 10:01:36;;;;;;;14.52;8.43;;;;;;;19.84;61.85;101614.00;4965354;28;20050;-67
2021/06/24 10:04:06;;;;;;;14.68;8.95;;;;;;;20.20;61.10;101602.72;4961777;28;20681;-68
2021/06/24 10:06:33;;;;;;;15.93;9.15;;;;;;;20.03;61.04;101606.13;4961354;28;20551;-68
2021/06/24 10:08:59;;;;;;;10.85;8.35;;;;;;;20.11;61.21;101609.28;4956467;28;20065;-65
2021/06/24 10:11:28;;;;;;;17.48;9.48;;;;;;;20.31;60.47;101604.88;4969377;28;20069;-68
2021/06/24 10:13:54;;;;;;;18.92;9.35;;;;;;;20.65;59.65;101611.19;4965681;28;20150;-68
2021/06/24 10:16:26;;;;;;;15.23;9.02;;;;;;;20.74;59.10;101610.78;4967164;28;20066;-67
2021/06/24 10:18:54;;;;;;;16.67;8.38;;;;;;;20.85;59.21;101620.00;4961376;28;20057;-68
2021/06/24 10:21:23;;;;;;;18.65;13.88;;;;;;;20.72;58.44;101619.69;4965721;28;20058;-68
2021/06/24 10:23:55;;;;;;;21.98;14.68;;;;;;;21.02;58.27;101614.72;4963852;28;20565;-68
2021/06/24 10:26:23;;;;;;;20.08;15.35;;;;;;;20.98;57.70;101623.75;4962354;28;20058;-67
2021/06/24 10:29:08;;;;;;;21.73;11.85;;;;;;;20.87;57.54;101623.41;4964408;28;20083;-67
2021/06/24 10:31:35;;;;;;;;;;;;;;;20.69;58.35;101610.13;4965477;28;20485;-68
2021/06/24 10:34:03;;;;;;;16.45;10.63;;;;;;;20.65;58.78;101613.84;4967097;28;20351;-67
2021/06/24 10:36:30;;;;;;;14.05;8.25;;;;;;;20.72;59.04;101611.78;4967821;28;20447;-67
2021/06/24 10:38:57;;;;;;;23.33;12.32;;;;;;;20.56;59.51;101609.88;4968011;28;20112;-67
2021/06/24 10:41:24;;;;;;;14.65;10.02;;;;;;;20.55;58.93;101609.91;4962245;28;20576;-67
2021/06/24 10:43:53;;;;;;;11.98;8.35;;;;;;;20.45;59.30;101614.81;4987896;28;20413;-67
2021/06/24 10:46:24;;;;;;;14.93;9.35;;;;;;;20.58;59.14;101609.78;4967891;28;20100;-67
2021/06/24 10:48:51;;;;;;;20.13;10.77;;;;;;;20.60;58.68;101618.50;4967470;28;20466;-67
2021/06/24 10:51:18;;;;;;;16.48;9.38;;;;;;;20.41;58.44;101611.44;4966433;28;20054;-66
2021/06/24 10:53:52;;;;;;;14.80;9.23;;;;;;;20.49;58.07;101604.00;4967716;28;20055;-66
2021/06/24 10:56:34;;;;;;;17.00;9.27;;;;;;;20.36;58.74;101602.88;4964971;28;20108;-67
2021/06/24 10:59:22;;;;;;;18.42;9.02;;;;;;;20.29;59.76;101604.09;4965266;28;20047;-67
2021/06/24 11:01:49;;;;;;;17.92;10.85;;;;;;;20.41;58.98;101602.66;4967920;28;20054;-67
2021/06/24 11:04:44;;;;;;;14.30;9.88;;;;;;;20.66;58.48;101608.47;4959655;28;20133;-67
2021/06/24 11:07:19;;;;;;;18.05;10.55;;;;;;;20.65;57.91;101598.84;4937408;28;20431;-66
2021/06/24 11:10:30;;;;;;;15.40;10.27;;;;;;;20.70;58.54;101596.00;4966818;28;20047;-67
2021/06/24 11:13:09;;;;;;;17.17;10.05;;;;;;;20.71;58.57;101597.72;4965178;28;20039;-67
2021/06/24 11:15:57;;;;;;;16.30;11.10;;;;;;;20.60;59.13;101597.34;4966216;28;20155;-66
2021/06/24 11:18:56;;;;;;;14.07;10.27;;;;;;;20.45;58.66;101588.38;4961397;28;20508;-65
2021/06/24 11:21:54;;;;;;;17.13;10.35;;;;;;;20.50;59.33;101597.81;4968656;28;20055;-66